Time;durP1;ratioP1;P1;durP2;ratioP2;P2;SDS_P1;SDS_P2;PMS_P1;PMS_P2;Temp;Humidity;BMP_temperature;BMP_pressure;BME280_temperature;BME280_humidity;BME280_pressure;Samples;Min_cycle;Max_cycle;Signal;HPM_P1;HPM_P2
2022/01/09 12:18:43;;;;;;;9.57;5.22;;;;;;;2.22;41.54;99758.63;3942921;23;21124;-74
2022/01/09 12:20:27;;;;;;;6.85;3.45;;;;;;;2.17;41.42;99756.41;3376734;29;20051;-73
2022/01/09 12:22:09;;;;;;;7.97;4.25;;;;;;;2.20;41.73;99759.72;3366517;29;20041;-72
2022/01/09 12:23:51;;;;;;;5.22;4.07;;;;;;;2.23;41.92;99748.94;3379592;29;20044;-72
2022/01/09 12:25:35;;;;;;;5.68;4.32;;;;;;;2.25;41.89;99754.88;3365806;29;20045;-72
2022/01/09 12:27:35;;;;;;;5.25;4.15;;;;;;;2.26;41.75;99741.56;3375135;29;20041;-73
2022/01/09 12:29:44;;;;;;;7.63;4.03;;;;;;;2.22;41.75;99742.00;3378197;29;20188;-70
2022/01/09 12:31:27;;;;;;;10.05;4.40;;;;;;;2.12;41.47;99734.97;3379132;29;20115;-71
2022/01/09 12:33:09;;;;;;;5.20;3.65;;;;;;;2.09;41.87;99740.50;3381709;29;20033;-72
2022/01/09 12:35:12;;;;;;;8.25;5.15;;;;;;;2.13;41.81;99752.38;3382060;29;20052;-73
2022/01/09 12:36:54;;;;;;;6.30;3.83;;;;;;;2.07;41.63;99739.78;3374312;29;20044;-73
2022/01/09 12:38:45;;;;;;;7.70;3.72;;;;;;;2.05;41.84;99735.66;3367180;29;20037;-71
2022/01/09 12:40:35;;;;;;;6.18;4.15;;;;;;;2.05;41.99;99739.09;3378195;29;20135;-73
2022/01/09 12:42:16;;;;;;;6.68;4.13;;;;;;;2.02;41.81;99728.88;3379438;29;20530;-71
2022/01/09 12:44:04;;;;;;;7.78;3.90;;;;;;;1.99;42.01;99734.41;3365920;29;20037;-73
2022/01/09 12:45:45;;;;;;;9.18;4.60;;;;;;;1.98;42.03;99732.72;3378149;29;20646;-74
2022/01/09 12:47:38;;;;;;;11.90;4.65;;;;;;;1.98;41.76;99730.09;3381530;29;20041;-74
2022/01/09 12:49:22;;;;;;;6.32;3.90;;;;;;;1.94;41.98;99723.47;3364843;29;20055;-70
2022/01/09 12:51:08;;;;;;;4.70;3.50;;;;;;;1.94;42.06;99729.56;3377859;29;20498;-72
2022/01/09 12:52:50;;;;;;;8.55;4.80;;;;;;;1.93;41.91;99729.69;3381026;29;20068;-72
2022/01/09 12:54:33;;;;;;;7.50;4.45;;;;;;;1.91;41.81;99724.59;3363228;29;20040;-72
2022/01/09 12:56:22;;;;;;;6.25;4.30;;;;;;;1.92;41.93;99726.25;3373146;29;20045;-70
2022/01/09 12:58:04;;;;;;;7.28;4.07;;;;;;;1.90;42.01;99725.53;3379184;29;20060;-71
2022/01/09 12:59:45;;;;;;;7.95;4.85;;;;;;;1.89;42.04;99717.81;3377129;29;20108;-73
2022/01/09 13:01:31;;;;;;;8.48;4.47;;;;;;;1.90;42.50;99722.09;3377481;29;20048;-73
2022/01/09 13:03:18;;;;;;;8.10;5.32;;;;;;;1.90;42.77;99724.72;3363724;29;20041;-73
2022/01/09 13:05:02;;;;;;;11.98;4.25;;;;;;;1.86;42.62;99723.31;3365819;29;20045;-73
2022/01/09 13:06:47;;;;;;;7.75;4.00;;;;;;;1.85;42.67;99721.66;3364272;29;20049;-73
2022/01/09 13:08:28;;;;;;;6.78;4.30;;;;;;;1.82;42.90;99721.94;3367637;29;20496;-72
2022/01/09 13:10:15;;;;;;;6.05;4.05;;;;;;;1.79;43.01;99724.84;3380114;29;20040;-73
2022/01/09 13:12:01;;;;;;;7.40;4.22;;;;;;;1.78;43.13;99731.06;3383449;29;20447;-71
2022/01/09 13:13:44;;;;;;;9.25;4.35;;;;;;;1.74;43.26;99728.72;3382927;29;20088;-72
2022/01/09 13:15:35;;;;;;;8.35;4.25;;;;;;;1.74;43.25;99722.63;3383969;29;20095;-73
2022/01/09 13:17:20;;;;;;;10.05;5.03;;;;;;;1.70;43.12;99714.22;3381908;29;20077;-74
2022/01/09 13:19:07;;;;;;;9.60;4.80;;;;;;;1.68;42.80;99723.19;3383878;29;20591;-74
2022/01/09 13:20:49;;;;;;;11.25;4.93;;;;;;;1.63;42.88;99718.34;3381833;29;20491;-74
2022/01/09 13:22:30;;;;;;;13.18;5.13;;;;;;;1.62;42.93;99724.53;3381399;29;20036;-73
2022/01/09 13:24:17;;;;;;;8.02;5.13;;;;;;;1.61;42.87;99725.53;3383000;29;20041;-73
2022/01/09 13:25:57;;;;;;;10.20;5.35;;;;;;;1.60;42.91;99723.88;3369653;29;20040;-73
2022/01/09 13:27:40;;;;;;;9.77;4.88;;;;;;;1.62;42.83;99721.09;3371888;29;20033;-74
2022/01/09 13:29:42;;;;;;;10.82;5.47;;;;;;;1.62;43.07;99721.91;3385949;29;20059;-73
2022/01/09 13:31:23;;;;;;;6.78;4.20;;;;;;;1.62;42.81;99721.91;3386646;29;20428;-72
2022/01/09 13:33:04;;;;;;;11.67;5.03;;;;;;;1.58;42.76;99720.53;3388620;29;20048;-77
2022/01/09 13:34:45;;;;;;;7.50;4.68;;;;;;;1.58;42.81;99714.47;3385079;29;20289;-71
2022/01/09 13:36:48;;;;;;;7.82;5.05;;;;;;;1.59;43.40;99713.50;3380083;29;20033;-71
2022/01/09 13:38:29;;;;;;;5.78;4.28;;;;;;;1.57;43.29;99715.41;3383253;29;20072;-71
2022/01/09 13:40:10;;;;;;;15.32;5.82;;;;;;;1.60;44.17;99708.13;3369430;29;20070;-71
2022/01/09 13:41:58;;;;;;;8.32;4.15;;;;;;;1.66;44.39;99698.84;3382021;29;20475;-73
2022/01/09 13:43:38;;;;;;;13.60;5.72;;;;;;;1.69;44.75;99706.44;3385853;29;20045;-73
2022/01/09 13:45:22;;;;;;;11.50;5.63;;;;;;;1.66;44.53;99699.66;3385759;29;20056;-71
2022/01/09 13:47:15;;;;;;;7.80;4.10;;;;;;;1.61;44.53;99698.44;3360522;29;20045;-73
2022/01/09 13:48:56;;;;;;;7.82;4.90;;;;;;;1.56;43.95;99693.59;3385406;29;20135;-73
2022/01/09 13:50:37;;;;;;;12.90;5.70;;;;;;;1.51;43.87;99690.53;3386838;29;20059;-72
2022/01/09 13:52:25;;;;;;;13.70;5.35;;;;;;;1.47;43.59;99683.88;3386515;29;20055;-72
2022/01/09 13:54:08;;;;;;;9.27;5.07;;;;;;;1.45;43.42;99698.97;3388617;29;20064;-72
2022/01/09 13:55:49;;;;;;;8.10;4.72;;;;;;;1.42;43.61;99689.56;3385654;29;20051;-72
2022/01/09 13:57:30;;;;;;;8.02;4.93;;;;;;;1.38;43.40;99687.34;3386125;29;20263;-73
2022/01/09 13:59:11;;;;;;;10.40;5.85;;;;;;;1.30;43.07;99686.22;3385826;29;20044;-73
2022/01/09 14:00:52;;;;;;;9.07;4.93;;;;;;;1.26;43.23;99684.81;3372377;29;20076;-73
2022/01/09 14:02:41;;;;;;;10.15;5.45;;;;;;;1.22;43.19;99683.44;3382845;29;20582;-73
2022/01/09 14:04:23;;;;;;;7.78;5.25;;;;;;;1.15;42.98;99674.44;3373406;29;20105;-72
2022/01/09 14:06:04;;;;;;;8.18;4.70;;;;;;;1.12;42.93;99677.31;3384225;29;20583;-72
2022/01/09 14:07:49;;;;;;;9.25;5.50;;;;;;;1.13;43.30;99680.78;3387352;29;20044;-74
2022/01/09 14:09:37;;;;;;;11.23;5.40;;;;;;;1.15;43.15;99682.31;3388045;29;20048;-72
2022/01/09 14:11:19;;;;;;;8.60;5.93;;;;;;;1.15;43.44;99674.44;3386576;29;20044;-73
2022/01/09 14:13:16;;;;;;;11.52;5.47;;;;;;;1.16;43.49;99673.50;3373720;29;20057;-73
2022/01/09 14:14:57;;;;;;;9.45;4.85;;;;;;;1.14;43.40;99669.34;3385114;29;20044;-73
2022/01/09 14:16:37;;;;;;;11.05;5.53;;;;;;;1.13;43.70;99668.47;3386259;29;20405;-72
2022/01/09 14:18:31;;;;;;;9.30;4.95;;;;;;;1.13;44.39;99671.09;3372802;29;20040;-73
2022/01/09 14:20:20;;;;;;;10.05;5.80;;;;;;;1.14;44.29;99678.03;3385600;29;20096;-72
2022/01/09 14:22:02;;;;;;;11.30;5.45;;;;;;;1.12;44.38;99671.25;3387820;29;20065;-73
2022/01/09 14:23:44;;;;;;;;;;;;;;;1.19;44.36;99665.34;3386974;29;20059;-72
2022/01/09 14:25:34;;;;;;;12.60;4.57;;;;;;;1.10;44.42;99681.88;3386798;29;19923;-74
2022/01/09 14:27:31;;;;;;;11.38;5.40;;;;;;;1.04;44.69;99677.19;3386591;29;20045;-72
2022/01/09 14:29:11;;;;;;;8.52;4.68;;;;;;;0.97;44.92;99676.03;3387353;29;20463;-72
2022/01/09 14:31:03;;;;;;;13.23;5.97;;;;;;;0.92;45.35;99663.31;3385185;29;20128;-73
2022/01/09 14:32:43;;;;;;;14.15;4.80;;;;;;;0.89;45.04;99655.72;3372498;29;20055;-72
2022/01/09 14:34:24;;;;;;;14.55;5.32;;;;;;;0.92;45.13;99665.13;3383797;29;20076;-71
2022/01/09 14:36:05;;;;;;;8.57;5.03;;;;;;;0.93;45.31;99667.63;3385790;29;20040;-75
2022/01/09 14:37:46;;;;;;;11.82;6.50;;;;;;;0.93;45.66;99670.25;3385881;29;20044;-75
2022/01/09 14:39:27;;;;;;;11.40;7.07;;;;;;;0.92;45.95;99680.84;3386188;29;20044;-72
2022/01/09 14:41:08;;;;;;;11.05;6.43;;;;;;;0.86;45.98;99674.34;3385628;29;20045;-72
2022/01/09 14:42:49;;;;;;;13.20;5.78;;;;;;;0.84;46.33;99671.84;3386751;29;20055;-72
2022/01/09 14:44:30;;;;;;;13.18;6.63;;;;;;;0.81;46.31;99674.75;3386437;29;20036;-72
2022/01/09 14:46:11;;;;;;;11.75;6.25;;;;;;;0.80;46.53;99675.72;3371126;29;20064;-73
2022/01/09 14:47:53;;;;;;;10.13;5.88;;;;;;;0.81;46.73;99671.28;3370667;29;20230;-73
2022/01/09 14:49:34;;;;;;;10.45;5.50;;;;;;;0.80;46.59;99665.22;3369854;29;20104;-73
2022/01/09 14:51:15;;;;;;;11.48;6.85;;;;;;;0.82;46.82;99665.91;3382421;29;20052;-73
2022/01/09 14:52:56;;;;;;;10.63;5.43;;;;;;;0.83;46.63;99670.19;3371174;29;20041;-71
2022/01/09 14:54:37;;;;;;;12.90;6.03;;;;;;;0.84;46.84;99671.84;3382454;29;20530;-73
2022/01/09 14:56:20;;;;;;;9.45;5.68;;;;;;;0.84;47.23;99669.22;3385506;29;20048;-72
2022/01/09 14:58:01;;;;;;;16.23;5.53;;;;;;;0.85;46.93;99670.91;3373859;29;20057;-69
2022/01/09 14:59:41;;;;;;;10.88;5.20;;;;;;;0.89;46.86;99678.50;3384597;29;20094;-71
2022/01/09 15:01:24;;;;;;;9.43;4.63;;;;;;;0.87;46.90;99668.97;3383426;29;20045;-71
2022/01/09 15:03:04;;;;;;;;;;;;;;;1.02;47.02;99668.59;3380628;29;20048;-73
2022/01/09 15:04:45;;;;;;;14.02;6.00;;;;;;;1.01;46.98;99664.31;3380562;29;19962;-73
2022/01/09 15:06:26;;;;;;;14.73;5.75;;;;;;;1.04;47.44;99659.63;3380699;29;20074;-71
2022/01/09 15:08:07;;;;;;;9.40;5.43;;;;;;;1.08;47.99;99654.94;3380452;29;20050;-71
2022/01/09 15:09:48;;;;;;;14.30;5.85;;;;;;;1.12;48.71;99658.97;3379435;29;20048;-70
2022/01/09 15:11:28;;;;;;;10.70;6.53;;;;;;;1.18;49.05;99657.59;3352144;29;20068;-70
2022/01/09 15:13:11;;;;;;;10.10;5.43;;;;;;;1.23;49.64;99653.59;3373189;29;20084;-72
2022/01/09 15:14:54;;;;;;;18.52;5.90;;;;;;;1.29;49.93;99647.81;3378930;29;20051;-69
2022/01/09 15:16:35;;;;;;;11.52;4.78;;;;;;;1.35;50.32;99648.22;3365478;29;20421;-70
2022/01/09 15:18:15;;;;;;;24.50;7.90;;;;;;;1.39;50.53;99639.09;3378098;29;20083;-70
2022/01/09 15:19:59;;;;;;;10.95;5.40;;;;;;;1.44;50.46;99642.13;3358479;29;20057;-70
2022/01/09 15:21:40;;;;;;;9.38;6.00;;;;;;;1.46;50.77;99642.84;3353631;29;20066;-72
2022/01/09 15:23:20;;;;;;;9.68;5.80;;;;;;;1.48;50.44;99635.66;3339255;29;20045;-68
2022/01/09 15:25:01;;;;;;;10.73;6.07;;;;;;;1.50;50.66;99639.81;3350145;29;20057;-70
2022/01/09 15:26:42;;;;;;;14.07;6.03;;;;;;;1.50;50.58;99636.34;3352858;29;20514;-71
2022/01/09 15:28:24;;;;;;;11.88;6.30;;;;;;;1.52;50.51;99639.66;3351832;29;20049;-72
2022/01/09 15:30:05;;;;;;;9.98;5.80;;;;;;;1.53;50.42;99628.19;3354623;29;20049;-73
2022/01/09 15:31:46;;;;;;;12.82;6.13;;;;;;;1.54;50.68;99637.72;3355268;29;20107;-70
2022/01/09 15:33:27;;;;;;;21.15;9.85;;;;;;;1.58;50.57;99630.41;3354756;29;20098;-72
2022/01/09 15:35:07;;;;;;;18.90;7.53;;;;;;;1.61;50.70;99632.75;3353073;29;20125;-70
2022/01/09 15:36:48;;;;;;;22.58;7.95;;;;;;;1.64;50.62;99633.31;3351971;29;20559;-71
2022/01/09 15:38:29;;;;;;;11.65;6.82;;;;;;;1.66;50.89;99639.25;3344451;29;20042;-74
2022/01/09 15:40:10;;;;;;;13.13;6.68;;;;;;;1.67;50.66;99635.66;3356569;29;20045;-73
2022/01/09 15:41:51;;;;;;;14.70;6.60;;;;;;;1.68;50.93;99637.31;3357515;29;20049;-74
2022/01/09 15:43:33;;;;;;;10.85;5.28;;;;;;;1.70;50.83;99640.66;3348031;29;20117;-74
2022/01/09 15:45:13;;;;;;;11.07;5.30;;;;;;;1.72;51.08;99637.88;3360794;29;20053;-74
2022/01/09 15:46:54;;;;;;;12.30;6.15;;;;;;;1.73;51.07;99635.09;3361462;29;20098;-75
2022/01/09 15:48:35;;;;;;;17.83;7.57;;;;;;;1.77;51.30;99637.44;3362430;29;20049;-76
2022/01/09 15:50:16;;;;;;;14.27;5.63;;;;;;;1.78;51.15;99642.56;3358616;29;20041;-74
2022/01/09 15:51:56;;;;;;;16.83;5.35;;;;;;;1.79;51.15;99638.16;3345254;29;20042;-71
2022/01/09 15:53:37;;;;;;;16.45;6.50;;;;;;;1.79;50.97;99638.16;3339659;29;20049;-72
2022/01/09 15:55:18;;;;;;;13.02;6.22;;;;;;;1.77;50.90;99635.66;3357129;29;20045;-71
2022/01/09 15:56:59;;;;;;;10.93;5.43;;;;;;;1.77;50.69;99634.81;3356314;29;20041;-73
2022/01/09 15:58:40;;;;;;;10.68;6.20;;;;;;;1.78;50.61;99633.84;3351154;29;20466;-70
2022/01/09 16:00:21;;;;;;;11.10;5.93;;;;;;;1.78;50.62;99626.78;3355564;29;20065;-73
2022/01/09 16:02:02;;;;;;;14.25;6.55;;;;;;;1.79;50.55;99631.09;3347814;29;20106;-76
2022/01/09 16:03:43;;;;;;;13.30;5.55;;;;;;;1.81;50.71;99639.66;3356486;29;20041;-74
2022/01/09 16:05:24;;;;;;;10.88;6.40;;;;;;;1.82;50.60;99624.72;3359896;29;20050;-74
2022/01/09 16:07:05;;;;;;;11.80;6.13;;;;;;;1.83;50.37;99634.25;3359569;29;20128;-73
2022/01/09 16:08:47;;;;;;;8.40;5.38;;;;;;;1.82;50.31;99624.72;3360535;29;20536;-74
2022/01/09 16:10:27;;;;;;;9.07;5.40;;;;;;;1.82;50.64;99627.34;3358974;29;20105;-73
2022/01/09 16:12:10;;;;;;;8.52;5.28;;;;;;;1.80;50.50;99624.03;3362498;29;20060;-75
2022/01/09 16:13:51;;;;;;;9.68;5.30;;;;;;;1.83;50.54;99629.00;3361394;29;20106;-72
2022/01/09 16:15:32;;;;;;;9.93;5.32;;;;;;;1.84;51.05;99625.41;3361083;29;20042;-74
2022/01/09 16:17:14;;;;;;;10.65;5.47;;;;;;;1.82;50.94;99625.56;3349907;29;20064;-74
2022/01/09 16:18:55;;;;;;;11.90;6.30;;;;;;;1.83;50.94;99618.50;3348405;29;20117;-74
2022/01/09 16:20:35;;;;;;;10.48;5.07;;;;;;;1.83;50.80;99619.31;3371217;29;20056;-74
2022/01/09 16:22:17;;;;;;;16.95;5.80;;;;;;;1.82;50.81;99611.59;3355394;29;20184;-70
2022/01/09 16:23:58;;;;;;;11.63;4.95;;;;;;;1.85;50.98;99606.88;3362147;29;20048;-71
2022/01/09 16:25:39;;;;;;;12.35;5.80;;;;;;;1.87;51.01;99604.13;3364505;29;20045;-70
2022/01/09 16:27:19;;;;;;;10.85;5.78;;;;;;;1.89;50.84;99607.44;3364564;29;20128;-70
2022/01/09 16:29:00;;;;;;;12.20;5.53;;;;;;;1.88;51.04;99601.31;3364220;29;20055;-69
2022/01/09 16:30:42;;;;;;;10.80;7.28;;;;;;;1.89;50.96;99596.94;3364014;29;20547;-72
2022/01/09 16:32:23;;;;;;;13.45;5.82;;;;;;;1.91;50.83;99600.22;3364719;29;20104;-72
2022/01/09 16:34:04;;;;;;;11.85;5.47;;;;;;;1.90;51.06;99594.13;3364125;29;20094;-70
2022/01/09 16:35:45;;;;;;;11.88;6.30;;;;;;;1.91;50.88;99597.59;3373753;29;20088;-73
2022/01/09 16:37:27;;;;;;;7.95;5.93;;;;;;;1.91;50.80;99594.97;3374153;29;20053;-73
2022/01/09 16:39:11;;;;;;;13.73;5.60;;;;;;;1.91;50.96;99587.06;3370339;29;20086;-73
2022/01/09 16:40:53;;;;;;;11.45;5.75;;;;;;;1.92;50.88;99599.25;3369192;29;20741;-71
2022/01/09 16:42:35;;;;;;;;;;;;;;;2.02;50.42;99597.44;3368417;29;20049;-73
2022/01/09 16:44:15;;;;;;;14.73;5.22;;;;;;;1.96;50.54;99592.75;3372530;29;19931;-72
2022/01/09 16:46:01;;;;;;;11.68;6.35;;;;;;;1.94;50.71;99594.72;3372485;29;20097;-72
2022/01/09 16:47:42;;;;;;;11.60;5.32;;;;;;;1.93;50.41;99604.38;3367244;29;20124;-70
2022/01/09 16:49:22;;;;;;;12.70;5.75;;;;;;;1.94;50.57;99611.28;3354690;29;20068;-71
2022/01/09 16:51:05;;;;;;;9.52;6.22;;;;;;;1.95;50.78;99606.88;3351598;29;20041;-73
2022/01/09 16:52:46;;;;;;;12.30;6.68;;;;;;;1.96;51.19;99606.72;3364675;29;20469;-72
2022/01/09 16:54:26;;;;;;;14.35;6.15;;;;;;;1.97;51.32;99604.94;3366666;29;20041;-74
2022/01/09 16:56:11;;;;;;;17.30;6.72;;;;;;;1.98;51.66;99600.50;3367822;29;20040;-73
2022/01/09 16:57:51;;;;;;;12.40;6.43;;;;;;;1.99;51.81;99607.41;3367051;29;20140;-72
2022/01/09 16:59:32;;;;;;;10.52;5.90;;;;;;;1.98;51.69;99601.31;3354932;29;20060;-73
2022/01/09 17:01:15;;;;;;;14.23;5.70;;;;;;;2.01;51.92;99605.47;3363215;29;20504;-73
2022/01/09 17:02:56;;;;;;;11.18;5.95;;;;;;;2.00;51.92;99604.63;3353407;29;20046;-73
2022/01/09 17:04:37;;;;;;;11.38;6.55;;;;;;;1.99;51.68;99602.13;3364972;29;20045;-73
2022/01/09 17:06:18;;;;;;;12.98;5.97;;;;;;;1.99;51.92;99599.50;3367485;29;20048;-72
2022/01/09 17:07:58;;;;;;;17.83;7.95;;;;;;;1.99;51.91;99597.75;3366072;29;20056;-70
2022/01/09 17:09:39;;;;;;;13.07;6.68;;;;;;;2.01;52.11;99597.56;3367544;29;20049;-71
2022/01/09 17:11:21;;;;;;;13.38;6.53;;;;;;;2.00;52.04;99591.50;3367358;29;20056;-74
2022/01/09 17:13:01;;;;;;;11.50;6.55;;;;;;;2.01;52.03;99595.78;3369384;29;20049;-72
2022/01/09 17:14:42;;;;;;;12.05;6.00;;;;;;;2.01;51.66;99587.88;3366894;29;20053;-72
2022/01/09 17:16:23;;;;;;;12.88;6.40;;;;;;;2.03;51.72;99593.84;3367174;29;20101;-72
2022/01/09 17:18:03;;;;;;;15.02;7.10;;;;;;;2.05;52.04;99601.59;3369001;29;20037;-73
2022/01/09 17:19:44;;;;;;;11.55;7.05;;;;;;;2.04;51.98;99587.63;3368012;29;20053;-73
2022/01/09 17:21:25;;;;;;;11.07;6.05;;;;;;;2.06;51.94;99593.53;3369186;29;20041;-72
2022/01/09 17:23:05;;;;;;;16.15;8.05;;;;;;;2.05;52.10;99588.44;3364474;29;20045;-70
2022/01/09 17:24:46;;;;;;;13.63;7.43;;;;;;;2.06;52.06;99582.22;3365866;29;20044;-71
2022/01/09 17:26:27;;;;;;;14.80;7.63;;;;;;;2.05;52.08;99584.00;3351938;29;20045;-71
2022/01/09 17:28:07;;;;;;;14.18;7.45;;;;;;;2.05;52.54;99584.00;3364013;29;20127;-73
2022/01/09 17:29:48;;;;;;;16.15;6.90;;;;;;;2.06;52.51;99587.47;3366608;29;20124;-73
2022/01/09 17:31:31;;;;;;;17.50;6.97;;;;;;;2.06;52.25;99585.66;3353141;29;20061;-72
2022/01/09 17:33:12;;;;;;;19.77;6.90;;;;;;;2.08;52.48;99586.34;3364111;29;20049;-73
2022/01/09 17:34:52;;;;;;;15.38;7.35;;;;;;;2.09;52.54;99588.03;3367080;29;20548;-72
2022/01/09 17:36:33;;;;;;;11.55;6.10;;;;;;;2.07;52.52;99584.72;3367395;29;20056;-73
2022/01/09 17:38:14;;;;;;;13.38;6.88;;;;;;;2.06;52.50;99583.03;3366595;29;20056;-72
2022/01/09 17:39:55;;;;;;;15.00;7.40;;;;;;;2.06;52.52;99587.47;3368528;29;20489;-72
2022/01/09 17:41:36;;;;;;;11.15;7.28;;;;;;;2.05;52.17;99586.66;3366662;29;20048;-72
2022/01/09 17:43:16;;;;;;;12.77;7.68;;;;;;;2.04;52.13;99579.75;3366350;29;20044;-73
2022/01/09 17:44:58;;;;;;;15.25;8.25;;;;;;;2.02;51.92;99576.41;3366677;29;20044;-71
2022/01/09 17:46:39;;;;;;;19.80;7.65;;;;;;;2.02;51.88;99579.06;3367878;29;20128;-71
2022/01/09 17:48:20;;;;;;;16.92;7.70;;;;;;;2.03;52.04;99577.25;3367873;29;20037;-73
2022/01/09 17:50:00;;;;;;;11.98;7.38;;;;;;;2.02;52.42;99586.94;3355933;29;20061;-73
2022/01/09 17:51:41;;;;;;;15.15;7.20;;;;;;;1.98;52.18;99585.53;3368307;29;20041;-75
2022/01/09 17:53:23;;;;;;;16.45;8.05;;;;;;;1.87;51.96;99583.91;3367322;29;20540;-72
2022/01/09 17:55:04;;;;;;;17.63;8.05;;;;;;;1.75;51.60;99585.84;3366567;29;20048;-71
2022/01/09 17:56:44;;;;;;;15.55;6.70;;;;;;;1.62;51.38;99590.56;3365268;29;20432;-72
2022/01/09 17:58:26;;;;;;;14.52;7.40;;;;;;;1.47;51.36;99578.84;3364868;29;20041;-73
2022/01/09 18:00:11;;;;;;;12.35;7.65;;;;;;;1.40;51.39;99583.00;3351507;29;20056;-73
2022/01/09 18:01:51;;;;;;;15.07;7.05;;;;;;;1.33;51.20;99585.34;3362751;29;20056;-73
2022/01/09 18:03:33;;;;;;;11.70;7.45;;;;;;;1.27;51.33;99585.91;3350968;29;20041;-73
2022/01/09 18:05:14;;;;;;;15.23;7.55;;;;;;;1.21;51.21;99579.38;3362431;29;20524;-73
2022/01/09 18:06:55;;;;;;;13.90;7.53;;;;;;;1.13;51.01;99574.00;3365218;29;20044;-74
2022/01/09 18:08:36;;;;;;;14.45;7.70;;;;;;;1.04;50.96;99574.84;3364980;29;20424;-73
2022/01/09 18:10:17;;;;;;;12.88;8.70;;;;;;;0.98;51.06;99575.34;3364628;29;20512;-73
2022/01/09 18:11:58;;;;;;;14.80;7.50;;;;;;;0.95;50.91;99571.22;3364503;29;20135;-72
2022/01/09 18:13:40;;;;;;;13.13;7.13;;;;;;;0.96;50.98;99577.31;3365442;29;20053;-73
2022/01/09 18:15:21;;;;;;;13.80;7.70;;;;;;;0.95;50.87;99570.38;3365164;29;20045;-76
2022/01/09 18:17:02;;;;;;;17.13;8.55;;;;;;;0.94;51.02;99573.97;3365280;29;20049;-72
2022/01/09 18:18:43;;;;;;;12.88;8.07;;;;;;;0.91;50.90;99575.09;3365423;29;20128;-71
2022/01/09 18:20:24;;;;;;;18.20;8.67;;;;;;;0.88;50.97;99575.38;3365899;29;20147;-73
2022/01/09 18:22:05;;;;;;;14.05;7.60;;;;;;;0.89;51.02;99576.19;3368012;29;20290;-73
2022/01/09 18:23:46;;;;;;;15.88;8.35;;;;;;;0.89;51.14;99573.56;3369703;29;20045;-74
2022/01/09 18:25:27;;;;;;;18.35;9.50;;;;;;;0.90;50.75;99572.59;3369286;29;20139;-73
2022/01/09 18:27:08;;;;;;;14.45;7.78;;;;;;;0.88;50.95;99570.13;3369742;29;20121;-73
2022/01/09 18:28:50;;;;;;;18.02;8.38;;;;;;;0.89;50.85;99568.31;3369371;29;20041;-71
2022/01/09 18:30:30;;;;;;;20.10;9.43;;;;;;;0.87;50.95;99578.94;3368083;29;20044;-73
2022/01/09 18:32:11;;;;;;;11.98;7.78;;;;;;;0.86;50.89;99572.03;3366701;29;20049;-72
2022/01/09 18:36:03;;;;;;;14.82;7.45;;;;;;;0.91;50.92;99574.25;3554447;23;20061;-70
2022/01/09 18:37:48;;;;;;;30.33;9.00;;;;;;;0.94;51.17;99573.97;3370216;29;20112;-70
2022/01/09 18:39:29;;;;;;;13.07;7.85;;;;;;;0.99;51.15;99574.41;3368816;29;20076;-70
2022/01/09 18:41:09;;;;;;;14.40;7.25;;;;;;;1.02;51.31;99571.50;3373898;29;20048;-69
2022/01/09 18:42:51;;;;;;;14.85;9.02;;;;;;;1.07;51.60;99574.56;3376719;29;20476;-70
2022/01/09 18:44:32;;;;;;;12.50;7.88;;;;;;;1.11;51.71;99568.06;3362374;29;20041;-70
2022/01/09 18:46:15;;;;;;;13.30;8.23;;;;;;;1.17;52.00;99575.38;3349110;29;20429;-70
2022/01/09 18:47:55;;;;;;;15.90;7.55;;;;;;;1.22;52.15;99572.38;3361034;29;20120;-72
2022/01/09 18:49:36;;;;;;;12.40;7.55;;;;;;;1.25;52.40;99565.03;3362607;29;20140;-69
2022/01/09 18:51:17;;;;;;;12.23;7.78;;;;;;;1.30;52.16;99569.88;3364241;29;20068;-71
2022/01/09 18:52:58;;;;;;;16.58;8.07;;;;;;;1.31;52.32;99567.09;3363421;29;20428;-71
2022/01/09 18:54:39;;;;;;;13.30;6.65;;;;;;;1.37;52.16;99559.63;3363011;29;20463;-71
2022/01/09 18:56:22;;;;;;;15.52;7.47;;;;;;;1.40;52.47;99564.63;3362376;29;20044;-70
2022/01/09 18:58:02;;;;;;;11.25;7.25;;;;;;;1.40;52.64;99554.13;3349541;29;20128;-71
2022/01/09 18:59:43;;;;;;;13.93;6.95;;;;;;;1.45;52.43;99549.28;3359866;29;20522;-71
2022/01/09 19:01:27;;;;;;;16.15;7.35;;;;;;;1.47;52.54;99550.81;3355888;29;20071;-70
2022/01/09 19:03:12;;;;;;;14.07;7.25;;;;;;;1.49;52.63;99550.66;3360878;29;20045;-70
2022/01/09 19:04:52;;;;;;;9.35;6.72;;;;;;;1.51;52.76;99556.59;3363287;29;20492;-70
2022/01/09 19:06:33;;;;;;;10.23;6.50;;;;;;;1.55;52.57;99555.34;3361424;29;20132;-70
2022/01/09 19:08:17;;;;;;;10.35;6.38;;;;;;;1.56;52.79;99553.56;3362734;29;21156;-69
2022/01/09 19:09:59;;;;;;;11.98;6.32;;;;;;;1.53;52.77;99549.41;3363599;29;20037;-70
2022/01/09 19:11:41;;;;;;;12.00;6.38;;;;;;;1.57;52.73;99552.56;3349608;29;20049;-68
2022/01/09 19:13:23;;;;;;;9.10;6.03;;;;;;;1.59;52.48;99553.28;3360494;29;20162;-70
2022/01/09 19:15:05;;;;;;;12.05;7.43;;;;;;;1.59;52.76;99546.22;3363886;29;20101;-69
2022/01/09 19:16:46;;;;;;;;;;;;;;;1.69;52.46;99544.41;3364214;29;20101;-69
2022/01/09 19:18:34;;;;;;;10.05;6.05;;;;;;;1.65;52.23;99543.03;3362386;29;20352;-69
2022/01/09 19:20:16;;;;;;;13.57;5.75;;;;;;;1.67;52.04;99550.75;3362485;29;20045;-69
2022/01/09 19:21:57;;;;;;;12.60;5.22;;;;;;;1.68;52.04;99553.25;3362883;29;20037;-72
2022/01/09 19:23:38;;;;;;;10.27;6.15;;;;;;;1.67;52.47;99543.69;3351692;29;20052;-71
2022/01/09 19:25:19;;;;;;;12.25;6.35;;;;;;;1.67;52.28;99548.13;3360465;29;20048;-70
2022/01/09 19:26:59;;;;;;;13.60;4.97;;;;;;;1.66;52.42;99539.44;3362296;29;20044;-71
2022/01/09 19:28:40;;;;;;;8.25;5.38;;;;;;;1.69;52.28;99544.41;3363460;29;20140;-69
2022/01/09 19:30:21;;;;;;;8.95;5.25;;;;;;;1.69;52.10;99547.03;3362576;29;20079;-71
2022/01/09 19:32:02;;;;;;;8.75;5.20;;;;;;;1.71;51.96;99552.97;3363292;29;21147;-70
2022/01/09 19:33:43;;;;;;;9.75;5.10;;;;;;;1.72;52.17;99549.38;3362413;29;20040;-71
2022/01/09 19:35:24;;;;;;;8.88;5.68;;;;;;;1.72;51.75;99554.63;3361024;29;21457;-71
2022/01/09 19:37:06;;;;;;;9.45;5.00;;;;;;;1.75;51.71;99549.06;3362942;29;20071;-69
2022/01/09 19:38:47;;;;;;;10.48;5.90;;;;;;;1.79;51.67;99548.81;3363463;29;20044;-70
2022/01/09 19:40:28;;;;;;;7.72;4.88;;;;;;;1.77;51.76;99545.50;3348861;29;20136;-69
2022/01/09 19:42:08;;;;;;;9.15;6.50;;;;;;;1.77;51.76;99556.00;3360561;29;20381;-72
2022/01/09 19:43:49;;;;;;;9.32;5.18;;;;;;;1.72;51.54;99538.84;3363752;29;20603;-73
2022/01/09 19:45:31;;;;;;;12.57;5.68;;;;;;;1.52;51.30;99517.06;3363418;29;20053;-70
2022/01/09 19:47:11;;;;;;;9.50;5.65;;;;;;;1.61;51.35;99544.28;3363091;29;20058;-69
2022/01/09 19:48:52;;;;;;;12.15;6.25;;;;;;;1.60;51.64;99540.00;3363173;29;20045;-69
2022/01/09 19:50:33;;;;;;;8.82;5.57;;;;;;;1.59;51.48;99537.50;3363086;29;20058;-68
2022/01/09 19:52:14;;;;;;;10.25;6.38;;;;;;;1.59;51.43;99527.00;3362696;29;20427;-67
2022/01/09 19:53:57;;;;;;;10.90;5.70;;;;;;;1.63;51.19;99538.91;3363854;29;20048;-67
2022/01/09 19:55:39;;;;;;;12.05;5.82;;;;;;;1.63;51.15;99538.91;3363376;29;20123;-68
2022/01/09 19:57:23;;;;;;;14.07;6.30;;;;;;;1.64;50.88;99543.16;3363174;29;20105;-68
2022/01/09 19:59:05;;;;;;;10.82;6.47;;;;;;;1.62;50.61;99537.22;3363297;29;20132;-68
2022/01/09 20:00:48;;;;;;;11.27;6.25;;;;;;;1.60;50.52;99534.75;3360537;29;20462;-67
2022/01/09 20:02:28;;;;;;;;;;;;;;;1.69;50.42;99536.53;3362788;29;20103;-69
2022/01/09 20:04:09;;;;;;;11.85;5.43;;;;;;;1.62;50.25;99524.91;3362070;29;19939;-67
2022/01/09 20:05:51;;;;;;;11.23;6.03;;;;;;;1.59;50.33;99524.38;3362827;29;20037;-66
2022/01/09 20:07:31;;;;;;;10.63;6.32;;;;;;;1.58;50.16;99520.09;3362032;29;20049;-68
2022/01/09 20:09:14;;;;;;;8.80;5.80;;;;;;;1.56;50.21;99522.84;3363189;29;20053;-68
2022/01/09 20:10:54;;;;;;;;;;;;;;;1.65;50.06;99521.19;3362711;29;20622;-68
2022/01/09 20:12:35;;;;;;;9.50;4.90;;;;;;;1.58;49.90;99526.19;3349151;29;19931;-68
2022/01/09 20:14:17;;;;;;;12.25;6.45;;;;;;;1.55;50.13;99517.72;3359928;29;20200;-69
2022/01/09 20:15:57;;;;;;;10.13;6.28;;;;;;;1.55;49.78;99518.59;3362842;29;20412;-67
2022/01/09 20:17:39;;;;;;;9.68;5.80;;;;;;;1.54;50.02;99514.28;3347406;29;20084;-69
2022/01/09 20:19:19;;;;;;;9.43;5.78;;;;;;;1.55;49.85;99515.09;3359591;29;20065;-69
2022/01/09 20:21:02;;;;;;;13.30;6.25;;;;;;;1.51;49.92;99514.56;3362700;29;20079;-69
2022/01/09 20:22:43;;;;;;;10.60;6.28;;;;;;;1.54;49.78;99519.53;3363079;29;20041;-69
2022/01/09 20:24:25;;;;;;;13.60;5.95;;;;;;;1.53;49.86;99504.75;3363271;29;20504;-69